sensor_id;sensor_type;location;lat;lon;timestamp;P1;durP1;ratioP1;P2;durP2;ratioP2
15194;SDS011;7698;42.478;23.756;2024-02-14T00:00:49;4.85;;;4.45;;
15194;SDS011;7698;42.478;23.756;2024-02-14T00:03:15;4.97;;;4.43;;
15194;SDS011;7698;42.478;23.756;2024-02-14T00:05:42;4.70;;;4.10;;
15194;SDS011;7698;42.478;23.756;2024-02-14T00:08:10;5.95;;;5.45;;
15194;SDS011;7698;42.478;23.756;2024-02-14T00:10:38;4.57;;;4.18;;
15194;SDS011;7698;42.478;23.756;2024-02-14T00:13:05;4.55;;;4.15;;
15194;SDS011;7698;42.478;23.756;2024-02-14T00:15:33;4.53;;;4.13;;
15194;SDS011;7698;42.478;23.756;2024-02-14T00:18:00;4.88;;;4.47;;
15194;SDS011;7698;42.478;23.756;2024-02-14T00:20:26;5.28;;;4.78;;
15194;SDS011;7698;42.478;23.756;2024-02-14T00:22:53;4.85;;;4.45;;
15194;SDS011;7698;42.478;23.756;2024-02-14T00:25:21;4.97;;;4.57;;
15194;SDS011;7698;42.478;23.756;2024-02-14T00:27:47;4.88;;;4.47;;
15194;SDS011;7698;42.478;23.756;2024-02-14T00:30:15;4.60;;;4.20;;
15194;SDS011;7698;42.478;23.756;2024-02-14T00:32:41;4.90;;;4.50;;
15194;SDS011;7698;42.478;23.756;2024-02-14T00:35:08;4.47;;;4.07;;
15194;SDS011;7698;42.478;23.756;2024-02-14T00:37:35;4.55;;;4.15;;
15194;SDS011;7698;42.478;23.756;2024-02-14T00:40:01;4.65;;;4.25;;
15194;SDS011;7698;42.478;23.756;2024-02-14T00:42:29;3.83;;;3.53;;
15194;SDS011;7698;42.478;23.756;2024-02-14T00:44:56;4.75;;;4.35;;
15194;SDS011;7698;42.478;23.756;2024-02-14T00:47:22;4.90;;;4.50;;
15194;SDS011;7698;42.478;23.756;2024-02-14T00:49:49;4.50;;;4.10;;
15194;SDS011;7698;42.478;23.756;2024-02-14T00:52:15;4.93;;;4.50;;
15194;SDS011;7698;42.478;23.756;2024-02-14T00:54:42;4.53;;;4.13;;
15194;SDS011;7698;42.478;23.756;2024-02-14T00:57:09;4.68;;;4.28;;
15194;SDS011;7698;42.478;23.756;2024-02-14T00:59:38;4.70;;;4.30;;
15194;SDS011;7698;42.478;23.756;2024-02-14T01:02:04;5.13;;;4.63;;
15194;SDS011;7698;42.478;23.756;2024-02-14T01:04:31;5.32;;;4.93;;
15194;SDS011;7698;42.478;23.756;2024-02-14T01:06:57;4.95;;;4.55;;
15194;SDS011;7698;42.478;23.756;2024-02-14T01:09:24;4.50;;;4.18;;
15194;SDS011;7698;42.478;23.756;2024-02-14T01:11:51;4.78;;;4.38;;
15194;SDS011;7698;42.478;23.756;2024-02-14T01:14:18;4.95;;;4.55;;
15194;SDS011;7698;42.478;23.756;2024-02-14T01:16:46;5.32;;;4.80;;
15194;SDS011;7698;42.478;23.756;2024-02-14T01:19:13;5.32;;;4.82;;
15194;SDS011;7698;42.478;23.756;2024-02-14T01:21:39;5.10;;;4.65;;
15194;SDS011;7698;42.478;23.756;2024-02-14T01:24:06;5.45;;;4.95;;
15194;SDS011;7698;42.478;23.756;2024-02-14T01:26:33;5.40;;;4.93;;
15194;SDS011;7698;42.478;23.756;2024-02-14T01:29:00;6.00;;;5.50;;
15194;SDS011;7698;42.478;23.756;2024-02-14T01:31:27;5.25;;;4.75;;
15194;SDS011;7698;42.478;23.756;2024-02-14T01:33:55;5.40;;;4.93;;
15194;SDS011;7698;42.478;23.756;2024-02-14T01:36:22;6.05;;;5.45;;
15194;SDS011;7698;42.478;23.756;2024-02-14T01:38:49;5.97;;;5.38;;
15194;SDS011;7698;42.478;23.756;2024-02-14T01:41:15;5.85;;;5.35;;
15194;SDS011;7698;42.478;23.756;2024-02-14T01:43:42;5.88;;;5.38;;
15194;SDS011;7698;42.478;23.756;2024-02-14T01:46:09;6.43;;;5.93;;
15194;SDS011;7698;42.478;23.756;2024-02-14T01:48:35;5.80;;;5.20;;
15194;SDS011;7698;42.478;23.756;2024-02-14T01:51:07;5.75;;;5.25;;
15194;SDS011;7698;42.478;23.756;2024-02-14T01:53:35;5.60;;;5.10;;
15194;SDS011;7698;42.478;23.756;2024-02-14T01:56:02;5.18;;;4.68;;
15194;SDS011;7698;42.478;23.756;2024-02-14T01:58:30;5.47;;;4.95;;
15194;SDS011;7698;42.478;23.756;2024-02-14T02:00:57;4.72;;;4.32;;
15194;SDS011;7698;42.478;23.756;2024-02-14T02:03:24;4.20;;;3.80;;
15194;SDS011;7698;42.478;23.756;2024-02-14T02:05:50;4.80;;;4.40;;
15194;SDS011;7698;42.478;23.756;2024-02-14T02:08:18;4.90;;;4.50;;
15194;SDS011;7698;42.478;23.756;2024-02-14T02:10:45;4.60;;;4.20;;
15194;SDS011;7698;42.478;23.756;2024-02-14T02:13:12;5.18;;;4.78;;
15194;SDS011;7698;42.478;23.756;2024-02-14T02:15:40;5.25;;;4.85;;
15194;SDS011;7698;42.478;23.756;2024-02-14T02:18:10;5.00;;;4.60;;
15194;SDS011;7698;42.478;23.756;2024-02-14T02:20:36;5.18;;;4.68;;
15194;SDS011;7698;42.478;23.756;2024-02-14T02:23:04;4.28;;;3.90;;
15194;SDS011;7698;42.478;23.756;2024-02-14T02:25:33;4.55;;;4.15;;
15194;SDS011;7698;42.478;23.756;2024-02-14T02:27:59;4.05;;;3.75;;
15194;SDS011;7698;42.478;23.756;2024-02-14T02:30:26;4.15;;;3.85;;
15194;SDS011;7698;42.478;23.756;2024-02-14T02:32:52;4.38;;;3.97;;
15194;SDS011;7698;42.478;23.756;2024-02-14T02:35:18;4.60;;;4.20;;
15194;SDS011;7698;42.478;23.756;2024-02-14T02:37:46;5.53;;;5.03;;
15194;SDS011;7698;42.478;23.756;2024-02-14T02:40:14;4.85;;;4.45;;
15194;SDS011;7698;42.478;23.756;2024-02-14T02:42:42;4.15;;;3.72;;
15194;SDS011;7698;42.478;23.756;2024-02-14T02:45:08;4.03;;;3.72;;
15194;SDS011;7698;42.478;23.756;2024-02-14T02:47:35;5.38;;;4.88;;
15194;SDS011;7698;42.478;23.756;2024-02-14T02:50:02;5.40;;;4.90;;
15194;SDS011;7698;42.478;23.756;2024-02-14T02:52:28;4.75;;;4.30;;
15194;SDS011;7698;42.478;23.756;2024-02-14T02:54:55;5.70;;;5.20;;
15194;SDS011;7698;42.478;23.756;2024-02-14T02:57:23;6.80;;;5.95;;
15194;SDS011;7698;42.478;23.756;2024-02-14T02:59:51;5.68;;;5.20;;
15194;SDS011;7698;42.478;23.756;2024-02-14T03:02:19;5.80;;;5.30;;
15194;SDS011;7698;42.478;23.756;2024-02-14T03:04:45;6.28;;;5.68;;
15194;SDS011;7698;42.478;23.756;2024-02-14T03:07:13;6.03;;;5.53;;
15194;SDS011;7698;42.478;23.756;2024-02-14T03:09:39;6.15;;;5.63;;
15194;SDS011;7698;42.478;23.756;2024-02-14T03:12:06;4.72;;;4.32;;
15194;SDS011;7698;42.478;23.756;2024-02-14T03:14:35;6.38;;;5.72;;
15194;SDS011;7698;42.478;23.756;2024-02-14T03:17:01;6.97;;;6.38;;
15194;SDS011;7698;42.478;23.756;2024-02-14T03:19:28;7.43;;;6.30;;
15194;SDS011;7698;42.478;23.756;2024-02-14T03:21:55;5.97;;;5.47;;
15194;SDS011;7698;42.478;23.756;2024-02-14T03:24:22;6.53;;;5.88;;
15194;SDS011;7698;42.478;23.756;2024-02-14T03:26:50;6.18;;;5.68;;
15194;SDS011;7698;42.478;23.756;2024-02-14T03:29:18;6.50;;;5.97;;
15194;SDS011;7698;42.478;23.756;2024-02-14T03:31:46;5.88;;;5.38;;
15194;SDS011;7698;42.478;23.756;2024-02-14T03:34:13;5.97;;;5.38;;
15194;SDS011;7698;42.478;23.756;2024-02-14T03:36:40;7.07;;;5.50;;
15194;SDS011;7698;42.478;23.756;2024-02-14T03:39:08;7.13;;;6.53;;
15194;SDS011;7698;42.478;23.756;2024-02-14T03:41:34;7.25;;;6.55;;
15194;SDS011;7698;42.478;23.756;2024-02-14T03:44:02;6.13;;;5.45;;
15194;SDS011;7698;42.478;23.756;2024-02-14T03:46:29;5.90;;;5.40;;
15194;SDS011;7698;42.478;23.756;2024-02-14T03:48:56;6.80;;;6.20;;
15194;SDS011;7698;42.478;23.756;2024-02-14T03:51:23;6.97;;;6.25;;
15194;SDS011;7698;42.478;23.756;2024-02-14T03:53:50;5.65;;;5.15;;
15194;SDS011;7698;42.478;23.756;2024-02-14T03:56:17;5.30;;;4.80;;
15194;SDS011;7698;42.478;23.756;2024-02-14T03:58:43;5.45;;;4.95;;
15194;SDS011;7698;42.478;23.756;2024-02-14T04:01:11;6.20;;;5.45;;
15194;SDS011;7698;42.478;23.756;2024-02-14T04:03:38;5.70;;;5.20;;
15194;SDS011;7698;42.478;23.756;2024-02-14T04:06:06;5.32;;;4.93;;
15194;SDS011;7698;42.478;23.756;2024-02-14T04:08:32;6.75;;;6.15;;
15194;SDS011;7698;42.478;23.756;2024-02-14T04:11:00;7.43;;;6.80;;
15194;SDS011;7698;42.478;23.756;2024-02-14T04:13:26;6.57;;;5.97;;
15194;SDS011;7698;42.478;23.756;2024-02-14T04:15:53;5.90;;;5.40;;
15194;SDS011;7698;42.478;23.756;2024-02-14T04:18:19;6.38;;;5.78;;
15194;SDS011;7698;42.478;23.756;2024-02-14T04:20:46;8.15;;;7.35;;
15194;SDS011;7698;42.478;23.756;2024-02-14T04:23:14;6.55;;;6.05;;
15194;SDS011;7698;42.478;23.756;2024-02-14T04:25:41;8.07;;;7.03;;
15194;SDS011;7698;42.478;23.756;2024-02-14T04:28:07;6.88;;;6.30;;
15194;SDS011;7698;42.478;23.756;2024-02-14T04:30:37;8.32;;;7.53;;
15194;SDS011;7698;42.478;23.756;2024-02-14T04:33:03;7.72;;;7.03;;
15194;SDS011;7698;42.478;23.756;2024-02-14T04:35:31;8.73;;;7.93;;
15194;SDS011;7698;42.478;23.756;2024-02-14T04:37:59;8.30;;;7.45;;
15194;SDS011;7698;42.478;23.756;2024-02-14T04:40:27;7.57;;;6.88;;
15194;SDS011;7698;42.478;23.756;2024-02-14T04:42:53;8.50;;;7.70;;
15194;SDS011;7698;42.478;23.756;2024-02-14T04:45:20;6.90;;;6.30;;
15194;SDS011;7698;42.478;23.756;2024-02-14T04:47:46;7.53;;;6.80;;
15194;SDS011;7698;42.478;23.756;2024-02-14T04:50:13;7.60;;;7.00;;
15194;SDS011;7698;42.478;23.756;2024-02-14T04:52:40;7.68;;;6.88;;
15194;SDS011;7698;42.478;23.756;2024-02-14T04:55:07;7.93;;;7.22;;
15194;SDS011;7698;42.478;23.756;2024-02-14T04:57:35;9.25;;;8.35;;
15194;SDS011;7698;42.478;23.756;2024-02-14T05:00:02;7.75;;;7.03;;
15194;SDS011;7698;42.478;23.756;2024-02-14T05:02:29;8.30;;;7.50;;
15194;SDS011;7698;42.478;23.756;2024-02-14T05:04:56;7.80;;;7.10;;
15194;SDS011;7698;42.478;23.756;2024-02-14T05:07:23;8.38;;;7.57;;
15194;SDS011;7698;42.478;23.756;2024-02-14T05:09:49;6.93;;;6.32;;
15194;SDS011;7698;42.478;23.756;2024-02-14T05:12:17;7.10;;;6.50;;
15194;SDS011;7698;42.478;23.756;2024-02-14T05:14:46;8.55;;;7.63;;
15194;SDS011;7698;42.478;23.756;2024-02-14T05:17:13;7.38;;;6.65;;
15194;SDS011;7698;42.478;23.756;2024-02-14T05:19:41;7.72;;;7.03;;
15194;SDS011;7698;42.478;23.756;2024-02-14T05:22:07;8.10;;;7.40;;
15194;SDS011;7698;42.478;23.756;2024-02-14T05:24:34;8.15;;;7.35;;
15194;SDS011;7698;42.478;23.756;2024-02-14T05:27:01;6.88;;;6.20;;
15194;SDS011;7698;42.478;23.756;2024-02-14T05:29:27;7.28;;;6.57;;
15194;SDS011;7698;42.478;23.756;2024-02-14T05:31:55;7.65;;;6.95;;
15194;SDS011;7698;42.478;23.756;2024-02-14T05:34:22;8.50;;;7.70;;
15194;SDS011;7698;42.478;23.756;2024-02-14T05:36:48;8.90;;;8.02;;
15194;SDS011;7698;42.478;23.756;2024-02-14T05:39:16;8.85;;;8.05;;
15194;SDS011;7698;42.478;23.756;2024-02-14T05:41:42;9.18;;;8.35;;
15194;SDS011;7698;42.478;23.756;2024-02-14T05:44:09;8.57;;;7.78;;
15194;SDS011;7698;42.478;23.756;2024-02-14T05:46:35;8.43;;;7.63;;
15194;SDS011;7698;42.478;23.756;2024-02-14T05:49:03;8.05;;;7.35;;
15194;SDS011;7698;42.478;23.756;2024-02-14T05:51:30;8.80;;;8.00;;
15194;SDS011;7698;42.478;23.756;2024-02-14T05:53:56;8.55;;;7.78;;
15194;SDS011;7698;42.478;23.756;2024-02-14T05:56:23;8.85;;;8.05;;
15194;SDS011;7698;42.478;23.756;2024-02-14T05:58:50;8.68;;;7.88;;
15194;SDS011;7698;42.478;23.756;2024-02-14T06:01:16;8.93;;;7.85;;
15194;SDS011;7698;42.478;23.756;2024-02-14T06:03:43;9.70;;;8.80;;
15194;SDS011;7698;42.478;23.756;2024-02-14T06:06:10;11.27;;;10.05;;
15194;SDS011;7698;42.478;23.756;2024-02-14T06:08:37;10.85;;;9.85;;
15194;SDS011;7698;42.478;23.756;2024-02-14T06:11:04;9.90;;;8.98;;
15194;SDS011;7698;42.478;23.756;2024-02-14T06:13:30;11.10;;;10.02;;
15194;SDS011;7698;42.478;23.756;2024-02-14T06:15:57;9.52;;;8.73;;
15194;SDS011;7698;42.478;23.756;2024-02-14T06:18:23;10.15;;;9.25;;
15194;SDS011;7698;42.478;23.756;2024-02-14T06:20:50;9.88;;;8.98;;
15194;SDS011;7698;42.478;23.756;2024-02-14T06:23:18;9.80;;;8.95;;
15194;SDS011;7698;42.478;23.756;2024-02-14T06:25:44;9.45;;;8.70;;
15194;SDS011;7698;42.478;23.756;2024-02-14T06:28:11;9.75;;;8.95;;
15194;SDS011;7698;42.478;23.756;2024-02-14T06:30:37;9.38;;;8.35;;
15194;SDS011;7698;42.478;23.756;2024-02-14T06:33:04;7.82;;;7.13;;
15194;SDS011;7698;42.478;23.756;2024-02-14T06:35:31;9.35;;;8.27;;
15194;SDS011;7698;42.478;23.756;2024-02-14T06:37:57;10.10;;;9.20;;
15194;SDS011;7698;42.478;23.756;2024-02-14T06:40:25;9.35;;;8.45;;
15194;SDS011;7698;42.478;23.756;2024-02-14T06:42:52;9.65;;;8.75;;
15194;SDS011;7698;42.478;23.756;2024-02-14T06:45:20;10.40;;;9.50;;
15194;SDS011;7698;42.478;23.756;2024-02-14T06:47:46;10.82;;;9.82;;
15194;SDS011;7698;42.478;23.756;2024-02-14T06:50:13;10.45;;;9.48;;
15194;SDS011;7698;42.478;23.756;2024-02-14T06:52:39;10.70;;;9.70;;
15194;SDS011;7698;42.478;23.756;2024-02-14T06:55:06;10.30;;;9.40;;
15194;SDS011;7698;42.478;23.756;2024-02-14T06:57:34;10.05;;;9.20;;
15194;SDS011;7698;42.478;23.756;2024-02-14T07:00:01;13.35;;;12.05;;
15194;SDS011;7698;42.478;23.756;2024-02-14T07:02:31;13.75;;;12.35;;
15194;SDS011;7698;42.478;23.756;2024-02-14T07:04:57;11.77;;;10.68;;
15194;SDS011;7698;42.478;23.756;2024-02-14T07:07:24;12.52;;;11.32;;
15194;SDS011;7698;42.478;23.756;2024-02-14T07:09:50;12.45;;;11.30;;
15194;SDS011;7698;42.478;23.756;2024-02-14T07:12:17;12.20;;;10.93;;
15194;SDS011;7698;42.478;23.756;2024-02-14T07:14:46;10.73;;;9.63;;
15194;SDS011;7698;42.478;23.756;2024-02-14T07:17:12;11.68;;;10.57;;
15194;SDS011;7698;42.478;23.756;2024-02-14T07:19:39;10.50;;;9.50;;
15194;SDS011;7698;42.478;23.756;2024-02-14T07:22:07;11.20;;;10.23;;
15194;SDS011;7698;42.478;23.756;2024-02-14T07:24:34;11.85;;;10.63;;
15194;SDS011;7698;42.478;23.756;2024-02-14T07:27:01;10.38;;;9.38;;
15194;SDS011;7698;42.478;23.756;2024-02-14T07:29:27;12.00;;;10.82;;
15194;SDS011;7698;42.478;23.756;2024-02-14T07:31:55;11.32;;;10.32;;
15194;SDS011;7698;42.478;23.756;2024-02-14T07:34:24;10.07;;;9.18;;
15194;SDS011;7698;42.478;23.756;2024-02-14T07:36:50;10.50;;;9.35;;
15194;SDS011;7698;42.478;23.756;2024-02-14T07:39:17;10.52;;;9.57;;
15194;SDS011;7698;42.478;23.756;2024-02-14T07:41:43;10.32;;;9.32;;
15194;SDS011;7698;42.478;23.756;2024-02-14T07:44:10;10.25;;;9.35;;
15194;SDS011;7698;42.478;23.756;2024-02-14T07:46:36;9.38;;;8.57;;
15194;SDS011;7698;42.478;23.756;2024-02-14T07:49:05;9.23;;;8.35;;
15194;SDS011;7698;42.478;23.756;2024-02-14T07:51:31;10.40;;;9.50;;
15194;SDS011;7698;42.478;23.756;2024-02-14T07:54:01;10.95;;;9.85;;
15194;SDS011;7698;42.478;23.756;2024-02-14T07:56:28;10.27;;;9.32;;
15194;SDS011;7698;42.478;23.756;2024-02-14T07:58:54;9.63;;;8.73;;
15194;SDS011;7698;42.478;23.756;2024-02-14T08:01:21;8.48;;;7.70;;
15194;SDS011;7698;42.478;23.756;2024-02-14T08:03:47;9.63;;;8.73;;
15194;SDS011;7698;42.478;23.756;2024-02-14T08:06:15;10.63;;;9.70;;
15194;SDS011;7698;42.478;23.756;2024-02-14T08:08:42;9.20;;;8.40;;
15194;SDS011;7698;42.478;23.756;2024-02-14T08:11:09;8.48;;;7.78;;
15194;SDS011;7698;42.478;23.756;2024-02-14T08:13:35;9.23;;;8.38;;
15194;SDS011;7698;42.478;23.756;2024-02-14T08:16:05;9.15;;;8.35;;
15194;SDS011;7698;42.478;23.756;2024-02-14T08:18:31;8.77;;;7.97;;
15194;SDS011;7698;42.478;23.756;2024-02-14T08:20:58;9.30;;;8.43;;
15194;SDS011;7698;42.478;23.756;2024-02-14T08:23:26;8.75;;;8.02;;
15194;SDS011;7698;42.478;23.756;2024-02-14T08:25:52;8.75;;;8.02;;
15194;SDS011;7698;42.478;23.756;2024-02-14T08:28:19;8.55;;;7.85;;
15194;SDS011;7698;42.478;23.756;2024-02-14T08:30:46;7.90;;;7.20;;
15194;SDS011;7698;42.478;23.756;2024-02-14T08:33:13;9.30;;;8.50;;
15194;SDS011;7698;42.478;23.756;2024-02-14T08:35:39;9.75;;;8.90;;
15194;SDS011;7698;42.478;23.756;2024-02-14T08:38:06;8.63;;;7.82;;
15194;SDS011;7698;42.478;23.756;2024-02-14T08:40:34;8.15;;;7.35;;
15194;SDS011;7698;42.478;23.756;2024-02-14T08:43:01;9.45;;;8.00;;
15194;SDS011;7698;42.478;23.756;2024-02-14T08:45:29;9.15;;;8.25;;
15194;SDS011;7698;42.478;23.756;2024-02-14T08:47:56;9.27;;;8.48;;
15194;SDS011;7698;42.478;23.756;2024-02-14T08:50:23;8.68;;;7.72;;
15194;SDS011;7698;42.478;23.756;2024-02-14T08:52:49;9.27;;;8.45;;
15194;SDS011;7698;42.478;23.756;2024-02-14T08:55:16;9.75;;;8.82;;
15194;SDS011;7698;42.478;23.756;2024-02-14T08:57:45;9.75;;;8.85;;
15194;SDS011;7698;42.478;23.756;2024-02-14T09:00:13;9.48;;;8.57;;
15194;SDS011;7698;42.478;23.756;2024-02-14T09:02:44;9.05;;;8.32;;
15194;SDS011;7698;42.478;23.756;2024-02-14T09:05:11;9.20;;;8.38;;
15194;SDS011;7698;42.478;23.756;2024-02-14T09:07:38;7.50;;;6.90;;
15194;SDS011;7698;42.478;23.756;2024-02-14T09:10:07;7.93;;;7.13;;
15194;SDS011;7698;42.478;23.756;2024-02-14T09:12:33;7.15;;;6.55;;
15194;SDS011;7698;42.478;23.756;2024-02-14T09:15:01;8.60;;;7.80;;
15194;SDS011;7698;42.478;23.756;2024-02-14T09:17:30;7.07;;;6.47;;
15194;SDS011;7698;42.478;23.756;2024-02-14T09:19:56;7.90;;;7.10;;
15194;SDS011;7698;42.478;23.756;2024-02-14T09:22:23;7.13;;;6.55;;
15194;SDS011;7698;42.478;23.756;2024-02-14T09:24:50;7.13;;;6.43;;
15194;SDS011;7698;42.478;23.756;2024-02-14T09:27:17;6.57;;;5.97;;
15194;SDS011;7698;42.478;23.756;2024-02-14T09:29:44;7.25;;;6.65;;
15194;SDS011;7698;42.478;23.756;2024-02-14T09:32:12;7.25;;;6.55;;
15194;SDS011;7698;42.478;23.756;2024-02-14T09:34:38;7.20;;;6.50;;
15194;SDS011;7698;42.478;23.756;2024-02-14T09:37:05;6.95;;;6.25;;
15194;SDS011;7698;42.478;23.756;2024-02-14T09:39:32;8.25;;;6.95;;
15194;SDS011;7698;42.478;23.756;2024-02-14T09:42:01;7.05;;;6.38;;
15194;SDS011;7698;42.478;23.756;2024-02-14T09:44:32;6.88;;;6.28;;
15194;SDS011;7698;42.478;23.756;2024-02-14T09:47:01;7.10;;;6.35;;
15194;SDS011;7698;42.478;23.756;2024-02-14T09:49:30;5.80;;;5.30;;
15194;SDS011;7698;42.478;23.756;2024-02-14T09:51:57;7.22;;;6.53;;
15194;SDS011;7698;42.478;23.756;2024-02-14T09:54:25;6.70;;;6.10;;
15194;SDS011;7698;42.478;23.756;2024-02-14T09:56:51;6.80;;;6.13;;
15194;SDS011;7698;42.478;23.756;2024-02-14T09:59:20;6.70;;;6.10;;
15194;SDS011;7698;42.478;23.756;2024-02-14T10:01:47;6.95;;;6.30;;
15194;SDS011;7698;42.478;23.756;2024-02-14T10:04:15;7.97;;;7.28;;
15194;SDS011;7698;42.478;23.756;2024-02-14T10:06:45;6.95;;;6.45;;
15194;SDS011;7698;42.478;23.756;2024-02-14T10:09:12;9.30;;;8.50;;
15194;SDS011;7698;42.478;23.756;2024-02-14T10:11:38;8.10;;;7.30;;
15194;SDS011;7698;42.478;23.756;2024-02-14T10:14:05;7.20;;;6.57;;
15194;SDS011;7698;42.478;23.756;2024-02-14T10:16:34;7.43;;;6.72;;
15194;SDS011;7698;42.478;23.756;2024-02-14T10:19:01;6.75;;;6.10;;
15194;SDS011;7698;42.478;23.756;2024-02-14T10:21:29;7.22;;;6.63;;
15194;SDS011;7698;42.478;23.756;2024-02-14T10:24:00;7.35;;;6.65;;
15194;SDS011;7698;42.478;23.756;2024-02-14T10:26:27;6.38;;;5.78;;
15194;SDS011;7698;42.478;23.756;2024-02-14T10:28:56;6.97;;;6.38;;
15194;SDS011;7698;42.478;23.756;2024-02-14T10:31:23;6.60;;;5.90;;
15194;SDS011;7698;42.478;23.756;2024-02-14T10:33:50;6.68;;;5.93;;
15194;SDS011;7698;42.478;23.756;2024-02-14T10:36:17;8.30;;;7.28;;
15194;SDS011;7698;42.478;23.756;2024-02-14T10:38:43;6.75;;;5.88;;
15194;SDS011;7698;42.478;23.756;2024-02-14T10:41:14;6.57;;;5.97;;
15194;SDS011;7698;42.478;23.756;2024-02-14T10:43:42;6.60;;;6.00;;
15194;SDS011;7698;42.478;23.756;2024-02-14T10:46:12;7.15;;;6.45;;
15194;SDS011;7698;42.478;23.756;2024-02-14T10:48:41;5.60;;;5.10;;
15194;SDS011;7698;42.478;23.756;2024-02-14T10:51:08;7.03;;;6.32;;
15194;SDS011;7698;42.478;23.756;2024-02-14T10:53:35;6.28;;;5.78;;
15194;SDS011;7698;42.478;23.756;2024-02-14T10:56:07;6.28;;;5.78;;
15194;SDS011;7698;42.478;23.756;2024-02-14T10:58:35;6.00;;;5.50;;
15194;SDS011;7698;42.478;23.756;2024-02-14T11:01:03;5.57;;;5.18;;
15194;SDS011;7698;42.478;23.756;2024-02-14T11:03:29;8.23;;;5.35;;
15194;SDS011;7698;42.478;23.756;2024-02-14T11:05:56;5.60;;;5.10;;
15194;SDS011;7698;42.478;23.756;2024-02-14T11:08:28;5.72;;;5.22;;
15194;SDS011;7698;42.478;23.756;2024-02-14T11:10:58;5.28;;;4.88;;
15194;SDS011;7698;42.478;23.756;2024-02-14T11:13:25;6.57;;;5.97;;
15194;SDS011;7698;42.478;23.756;2024-02-14T11:15:54;5.07;;;4.63;;
15194;SDS011;7698;42.478;23.756;2024-02-14T11:18:24;7.18;;;6.22;;
15194;SDS011;7698;42.478;23.756;2024-02-14T11:20:51;6.28;;;5.70;;
15194;SDS011;7698;42.478;23.756;2024-02-14T11:23:21;6.00;;;5.50;;
15194;SDS011;7698;42.478;23.756;2024-02-14T11:25:48;5.90;;;5.40;;
15194;SDS011;7698;42.478;23.756;2024-02-14T11:28:15;5.40;;;5.00;;
15194;SDS011;7698;42.478;23.756;2024-02-14T11:30:41;4.72;;;4.38;;
15194;SDS011;7698;42.478;23.756;2024-02-14T11:33:20;5.45;;;4.95;;
15194;SDS011;7698;42.478;23.756;2024-02-14T11:35:47;6.75;;;5.60;;
15194;SDS011;7698;42.478;23.756;2024-02-14T11:38:15;5.22;;;4.72;;
15194;SDS011;7698;42.478;23.756;2024-02-14T11:40:42;6.55;;;5.35;;
15194;SDS011;7698;42.478;23.756;2024-02-14T11:43:11;5.70;;;5.22;;
15194;SDS011;7698;42.478;23.756;2024-02-14T11:45:39;5.80;;;5.30;;
15194;SDS011;7698;42.478;23.756;2024-02-14T11:48:07;6.05;;;5.55;;
15194;SDS011;7698;42.478;23.756;2024-02-14T11:50:35;6.40;;;5.80;;
15194;SDS011;7698;42.478;23.756;2024-02-14T11:53:02;6.03;;;5.47;;
15194;SDS011;7698;42.478;23.756;2024-02-14T11:55:31;6.03;;;5.43;;
15194;SDS011;7698;42.478;23.756;2024-02-14T11:57:58;6.97;;;6.28;;
15194;SDS011;7698;42.478;23.756;2024-02-14T12:00:24;6.22;;;5.72;;
15194;SDS011;7698;42.478;23.756;2024-02-14T12:02:51;6.22;;;5.72;;
15194;SDS011;7698;42.478;23.756;2024-02-14T12:05:17;5.68;;;5.05;;
15194;SDS011;7698;42.478;23.756;2024-02-14T12:07:45;6.18;;;5.68;;
15194;SDS011;7698;42.478;23.756;2024-02-14T12:10:12;7.07;;;6.47;;
15194;SDS011;7698;42.478;23.756;2024-02-14T12:12:39;6.47;;;5.95;;
15194;SDS011;7698;42.478;23.756;2024-02-14T12:15:06;5.70;;;5.28;;
15194;SDS011;7698;42.478;23.756;2024-02-14T12:17:36;5.63;;;5.13;;
15194;SDS011;7698;42.478;23.756;2024-02-14T12:20:07;5.20;;;4.68;;
15194;SDS011;7698;42.478;23.756;2024-02-14T12:22:34;6.35;;;5.70;;
15194;SDS011;7698;42.478;23.756;2024-02-14T12:25:04;5.85;;;5.28;;
15194;SDS011;7698;42.478;23.756;2024-02-14T12:27:31;5.13;;;4.72;;
15194;SDS011;7698;42.478;23.756;2024-02-14T12:29:58;5.80;;;5.30;;
15194;SDS011;7698;42.478;23.756;2024-02-14T12:32:25;5.40;;;4.90;;
15194;SDS011;7698;42.478;23.756;2024-02-14T12:34:51;6.28;;;5.72;;
15194;SDS011;7698;42.478;23.756;2024-02-14T12:37:18;5.93;;;5.43;;
15194;SDS011;7698;42.478;23.756;2024-02-14T12:39:44;5.82;;;5.22;;
15194;SDS011;7698;42.478;23.756;2024-02-14T12:42:12;6.15;;;5.53;;
15194;SDS011;7698;42.478;23.756;2024-02-14T12:44:39;5.82;;;5.38;;
15194;SDS011;7698;42.478;23.756;2024-02-14T12:47:05;5.70;;;5.20;;
15194;SDS011;7698;42.478;23.756;2024-02-14T12:49:32;5.95;;;5.40;;
15194;SDS011;7698;42.478;23.756;2024-02-14T12:51:59;6.05;;;5.55;;
15194;SDS011;7698;42.478;23.756;2024-02-14T12:54:25;5.78;;;5.28;;
15194;SDS011;7698;42.478;23.756;2024-02-14T12:56:52;5.32;;;4.82;;
15194;SDS011;7698;42.478;23.756;2024-02-14T12:59:20;5.80;;;5.30;;
15194;SDS011;7698;42.478;23.756;2024-02-14T13:01:47;6.00;;;5.50;;
15194;SDS011;7698;42.478;23.756;2024-02-14T13:04:14;5.95;;;5.45;;
15194;SDS011;7698;42.478;23.756;2024-02-14T13:06:41;5.55;;;5.05;;
15194;SDS011;7698;42.478;23.756;2024-02-14T13:09:08;5.78;;;5.28;;
15194;SDS011;7698;42.478;23.756;2024-02-14T13:11:35;5.20;;;4.80;;
15194;SDS011;7698;42.478;23.756;2024-02-14T13:14:02;5.18;;;4.68;;
15194;SDS011;7698;42.478;23.756;2024-02-14T13:16:31;5.63;;;5.13;;
15194;SDS011;7698;42.478;23.756;2024-02-14T13:18:57;5.35;;;4.95;;
15194;SDS011;7698;42.478;23.756;2024-02-14T13:21:24;5.22;;;4.70;;
15194;SDS011;7698;42.478;23.756;2024-02-14T13:23:51;5.75;;;5.25;;
15194;SDS011;7698;42.478;23.756;2024-02-14T13:26:17;5.28;;;4.78;;
15194;SDS011;7698;42.478;23.756;2024-02-14T13:28:44;5.72;;;5.28;;
15194;SDS011;7698;42.478;23.756;2024-02-14T13:31:11;6.97;;;6.28;;
15194;SDS011;7698;42.478;23.756;2024-02-14T13:33:39;5.35;;;4.85;;
15194;SDS011;7698;42.478;23.756;2024-02-14T13:36:05;6.53;;;5.93;;
15194;SDS011;7698;42.478;23.756;2024-02-14T13:38:32;5.40;;;5.00;;
15194;SDS011;7698;42.478;23.756;2024-02-14T13:40:59;5.18;;;4.72;;
15194;SDS011;7698;42.478;23.756;2024-02-14T13:43:25;4.57;;;4.18;;
15194;SDS011;7698;42.478;23.756;2024-02-14T13:45:52;5.15;;;4.70;;
15194;SDS011;7698;42.478;23.756;2024-02-14T13:48:19;5.47;;;4.97;;
15194;SDS011;7698;42.478;23.756;2024-02-14T13:50:47;5.60;;;5.10;;
15194;SDS011;7698;42.478;23.756;2024-02-14T13:53:14;4.95;;;4.55;;
15194;SDS011;7698;42.478;23.756;2024-02-14T13:55:41;4.40;;;4.07;;
15194;SDS011;7698;42.478;23.756;2024-02-14T13:58:08;5.07;;;4.53;;
15194;SDS011;7698;42.478;23.756;2024-02-14T14:00:40;5.80;;;5.30;;
15194;SDS011;7698;42.478;23.756;2024-02-14T14:03:07;4.97;;;4.47;;
15194;SDS011;7698;42.478;23.756;2024-02-14T14:05:33;4.57;;;4.18;;
15194;SDS011;7698;42.478;23.756;2024-02-14T14:08:01;5.03;;;4.63;;
15194;SDS011;7698;42.478;23.756;2024-02-14T14:10:28;4.70;;;4.30;;
15194;SDS011;7698;42.478;23.756;2024-02-14T14:12:55;5.15;;;4.68;;
15194;SDS011;7698;42.478;23.756;2024-02-14T14:15:22;5.35;;;4.85;;
15194;SDS011;7698;42.478;23.756;2024-02-14T14:17:48;5.25;;;4.78;;
15194;SDS011;7698;42.478;23.756;2024-02-14T14:20:15;4.22;;;3.92;;
15194;SDS011;7698;42.478;23.756;2024-02-14T14:22:41;5.30;;;4.80;;
15194;SDS011;7698;42.478;23.756;2024-02-14T14:25:10;5.20;;;4.70;;
15194;SDS011;7698;42.478;23.756;2024-02-14T14:27:36;5.40;;;4.90;;
15194;SDS011;7698;42.478;23.756;2024-02-14T14:30:04;5.18;;;4.75;;
15194;SDS011;7698;42.478;23.756;2024-02-14T14:32:32;4.55;;;4.18;;
15194;SDS011;7698;42.478;23.756;2024-02-14T14:34:59;5.32;;;4.82;;
15194;SDS011;7698;42.478;23.756;2024-02-14T14:37:25;5.07;;;4.57;;
15194;SDS011;7698;42.478;23.756;2024-02-14T14:39:52;5.40;;;4.82;;
15194;SDS011;7698;42.478;23.756;2024-02-14T14:42:20;5.00;;;4.50;;
15194;SDS011;7698;42.478;23.756;2024-02-14T14:44:47;5.53;;;4.80;;